Wrington, United Kingdom
Current Conditions -  °F | °C
As of 9:50 AM on Friday 24 Oct 2014 (Local Time) from EGGD Reporting Station
Rain Showers Rain Showers  
Wind Chill: 55°   Ceiling: 600
Heat Index: 55°   Visibility: 6mi
Dew Point: 55°   Wind: 8mph
Humidity: 100%   Direction: 200°SSW
Pressure: 29.94"   Gusts: NA
Location:  51.36°N, 2.76°W
Report Text: EGGD 240850Z 20007KT 9999 VCSH FEW005 BKN006 13/13 Q1014
Loading
Personal Weather Stations






























Interactive Weather Map New forecast layout! Learn more

10-Day Weather Forecast

Advertisements
Track Severe Weather on mobile